createdAt,value
2019-06-01T00:00:14.899Z,3.83
2019-06-01T00:01:19.866Z,4.33
2019-06-01T00:02:25.151Z,3.83
2019-06-01T00:03:30.158Z,4.42
2019-06-01T00:04:36.024Z,4.35
2019-06-01T00:05:40.984Z,5.10
2019-06-01T00:06:47.027Z,5.15
2019-06-01T00:07:52.182Z,4.20
2019-06-01T00:08:58.028Z,3.77
2019-06-01T00:10:03.001Z,4.33
2019-06-01T00:11:08.547Z,4.30
2019-06-01T00:12:13.235Z,4.20
2019-06-01T00:13:18.791Z,4.47
2019-06-01T00:14:24.096Z,3.92
2019-06-01T00:15:30.044Z,3.85
2019-06-01T00:16:34.762Z,4.08
2019-06-01T00:17:41.760Z,4.20
2019-06-01T00:18:48.231Z,4.45
2019-06-01T00:19:54.286Z,4.00
2019-06-01T00:20:59.524Z,4.47
2019-06-01T00:22:05.070Z,5.10
2019-06-01T00:23:10.115Z,4.70
2019-06-01T00:24:15.967Z,4.37
2019-06-01T00:25:20.948Z,4.60
2019-06-01T00:26:27.188Z,4.62
2019-06-01T00:27:32.246Z,4.70
2019-06-01T00:28:37.793Z,4.05
2019-06-01T00:29:42.718Z,4.25
2019-06-01T00:30:48.592Z,4.87
2019-06-01T00:31:53.350Z,4.75
2019-06-01T00:32:58.931Z,4.80
2019-06-01T00:34:04.182Z,5.22
2019-06-01T00:35:09.741Z,5.10
2019-06-01T00:36:14.440Z,4.70
2019-06-01T00:37:20.011Z,4.97
2019-06-01T00:38:25.259Z,5.47
2019-06-01T00:39:30.278Z,5.45
2019-06-01T00:40:35.539Z,5.22
2019-06-01T00:41:41.917Z,4.85
2019-06-01T00:42:48.214Z,5.33
2019-06-01T00:43:54.214Z,5.45
2019-06-01T00:44:59.599Z,5.42
2019-06-01T00:46:04.897Z,5.25
2019-06-01T00:47:10.205Z,5.12
2019-06-01T00:48:15.590Z,4.92
2019-06-01T00:49:20.833Z,5.17
2019-06-01T00:50:25.891Z,5.00
2019-06-01T00:51:31.163Z,4.67
2019-06-01T00:52:36.672Z,4.67
2019-06-01T00:53:43.293Z,4.90
2019-06-01T00:54:49.487Z,5.20
2019-06-01T00:55:54.292Z,5.12
2019-06-01T00:57:00.290Z,4.72
2019-06-01T00:58:05.001Z,5.22
2019-06-01T00:59:10.329Z,4.95
2019-06-01T01:00:15.304Z,5.30
2019-06-01T01:01:20.883Z,5.00
2019-06-01T01:02:25.575Z,5.00
2019-06-01T01:03:31.170Z,5.65
2019-06-01T01:04:36.435Z,5.35
2019-06-01T01:05:41.757Z,5.20
2019-06-01T01:06:46.763Z,5.17
2019-06-01T01:07:53.550Z,5.00
2019-06-01T01:08:58.638Z,4.90
2019-06-01T01:10:03.933Z,5.45
2019-06-01T01:11:08.636Z,5.17
2019-06-01T01:12:13.683Z,5.20
2019-06-01T01:13:20.912Z,4.80
2019-06-01T01:14:26.200Z,4.87
2019-06-01T01:15:31.157Z,5.25
2019-06-01T01:16:36.700Z,4.90
2019-06-01T01:17:41.209Z,5.55
2019-06-01T01:18:47.765Z,5.28
2019-06-01T01:19:53.918Z,5.45
2019-06-01T01:20:59.792Z,5.22
2019-06-01T01:22:05.773Z,5.12
2019-06-01T01:23:10.845Z,4.75
2019-06-01T01:24:16.087Z,4.72
2019-06-01T01:25:21.932Z,4.95
2019-06-01T01:26:26.909Z,5.22
2019-06-01T01:27:32.479Z,5.22
2019-06-01T01:28:37.736Z,4.90
2019-06-01T01:29:43.092Z,5.60
2019-06-01T01:31:02.988Z,4.85
2019-06-01T01:31:55.392Z,5.25
2019-06-01T01:33:00.589Z,4.97
2019-06-01T01:34:06.142Z,4.95
2019-06-01T01:35:10.955Z,5.28
2019-06-01T01:36:16.769Z,5.03
2019-06-01T01:37:21.788Z,5.90
2019-06-01T01:38:27.644Z,5.28
2019-06-01T01:39:32.910Z,5.22
2019-06-01T01:40:38.301Z,5.20
2019-06-01T01:41:43.312Z,5.20
2019-06-01T01:42:50.491Z,5.60
2019-06-01T01:43:56.566Z,4.95
2019-06-01T01:45:02.160Z,5.28
2019-06-01T01:46:06.745Z,5.60
2019-06-01T01:47:14.434Z,5.83
2019-06-01T01:48:19.158Z,5.28
2019-06-01T01:49:24.743Z,5.15
2019-06-01T01:50:29.718Z,5.60
2019-06-01T01:51:35.311Z,5.50
2019-06-01T01:52:40.834Z,5.25
2019-06-01T01:53:46.125Z,5.53
2019-06-01T01:54:51.138Z,5.33
2019-06-01T01:55:57.232Z,5.15
2019-06-01T01:57:02.718Z,5.58
2019-06-01T01:58:08.356Z,4.87
2019-06-01T01:59:12.838Z,5.08
2019-06-01T02:00:32.316Z,5.15
2019-06-01T02:01:37.310Z,5.12
2019-06-01T02:02:42.970Z,5.40
2019-06-01T02:03:47.942Z,5.37
2019-06-01T02:04:54.226Z,5.53
2019-06-01T02:05:59.257Z,5.58
2019-06-01T02:07:04.789Z,5.00
2019-06-01T02:08:09.736Z,5.65
2019-06-01T02:09:14.822Z,5.53
2019-06-01T02:10:19.515Z,5.08
2019-06-01T02:11:24.799Z,5.30
2019-06-01T02:12:30.070Z,5.35
2019-06-01T02:13:35.998Z,5.00
2019-06-01T02:14:41.001Z,5.33
2019-06-01T02:15:46.282Z,5.53
2019-06-01T02:16:51.900Z,5.50
2019-06-01T02:17:58.155Z,5.60
2019-06-01T02:19:03.429Z,5.35
2019-06-01T02:20:09.120Z,5.22
2019-06-01T02:21:13.807Z,4.85
2019-06-01T02:22:19.364Z,5.25
2019-06-01T02:23:24.643Z,5.10
2019-06-01T02:24:30.042Z,4.90
2019-06-01T02:25:34.626Z,5.30
2019-06-01T02:26:40.088Z,5.20
2019-06-01T02:27:44.540Z,5.58
2019-06-01T02:28:49.832Z,5.58
2019-06-01T02:29:55.300Z,5.47
2019-06-01T02:31:02.104Z,5.50
2019-06-01T02:32:07.587Z,5.40
2019-06-01T02:33:12.626Z,6.17
2019-06-01T02:34:17.319Z,5.17
2019-06-01T02:35:23.166Z,5.67
2019-06-01T02:36:28.425Z,5.75
2019-06-01T02:37:33.459Z,5.12
2019-06-01T02:38:38.199Z,5.15
2019-06-01T02:39:44.499Z,5.25
2019-06-01T02:40:49.882Z,4.85
2019-06-01T02:41:56.685Z,5.03
2019-06-01T02:43:03.716Z,4.95
2019-06-01T02:44:08.923Z,4.87
2019-06-01T02:45:14.124Z,4.80
2019-06-01T02:46:19.714Z,5.00
2019-06-01T02:47:24.687Z,4.95
2019-06-01T02:48:29.723Z,5.45
2019-06-01T02:49:35.057Z,5.30
2019-06-01T02:50:40.686Z,5.25
2019-06-01T02:51:45.667Z,5.53
2019-06-01T02:52:51.214Z,5.80
2019-06-01T02:53:57.593Z,5.40
2019-06-01T02:55:04.584Z,6.05
2019-06-01T02:56:09.646Z,5.22
2019-06-01T02:57:15.488Z,4.75
2019-06-01T02:58:21.044Z,5.08
2019-06-01T02:59:26.574Z,5.47
2019-06-01T03:01:12.102Z,4.78
2019-06-01T03:02:17.776Z,5.47
2019-06-01T03:03:22.462Z,5.20
2019-06-01T03:04:28.112Z,5.80
2019-06-01T03:05:33.748Z,5.47
2019-06-01T03:06:42.338Z,5.55
2019-06-01T03:07:50.241Z,5.22
2019-06-01T03:08:59.759Z,5.90
2019-06-01T03:10:06.955Z,5.20
2019-06-01T03:11:15.475Z,5.78
2019-06-01T03:12:22.637Z,5.42
2019-06-01T03:13:29.828Z,6.50
2019-06-01T03:14:36.923Z,5.72
2019-06-01T03:15:43.959Z,5.62
2019-06-01T03:16:52.391Z,5.53
2019-06-01T03:18:01.557Z,5.30
2019-06-01T03:19:08.068Z,5.53
2019-06-01T03:20:14.802Z,5.62
2019-06-01T03:21:22.383Z,5.62
2019-06-01T03:22:29.087Z,5.22
2019-06-01T03:23:36.101Z,5.62
2019-06-01T03:24:41.681Z,5.90
2019-06-01T03:25:49.578Z,6.10
2019-06-01T03:26:56.239Z,5.72
2019-06-01T03:28:04.237Z,6.08
2019-06-01T03:29:12.728Z,5.53
2019-06-01T03:30:23.299Z,6.08
2019-06-01T03:31:29.135Z,5.65
2019-06-01T03:32:37.131Z,5.92
2019-06-01T03:33:41.453Z,6.05
2019-06-01T03:34:46.410Z,6.17
2019-06-01T03:35:51.964Z,6.00
2019-06-01T03:36:56.977Z,5.47
2019-06-01T03:38:03.018Z,6.08
2019-06-01T03:39:08.518Z,6.35
2019-06-01T03:40:23.406Z,6.30
2019-06-01T03:41:21.193Z,5.62
2019-06-01T03:42:26.761Z,6.47
2019-06-01T03:43:32.064Z,6.37
2019-06-01T03:44:37.923Z,6.20
2019-06-01T03:45:42.905Z,6.15
2019-06-01T03:46:48.644Z,5.70
2019-06-01T03:47:54.201Z,6.53
2019-06-01T03:48:59.480Z,6.10
2019-06-01T03:50:04.837Z,6.15
2019-06-01T03:51:10.406Z,6.17
2019-06-01T03:52:15.403Z,6.45
2019-06-01T03:53:20.980Z,6.22
2019-06-01T03:54:26.102Z,6.72
2019-06-01T03:55:31.985Z,6.92
2019-06-01T03:56:36.928Z,6.47
2019-06-01T03:57:42.258Z,6.15
2019-06-01T03:58:47.223Z,6.17
2019-06-01T03:59:53.095Z,6.72
2019-06-01T04:00:58.263Z,6.50
2019-06-01T04:02:03.566Z,6.92
2019-06-01T04:03:09.202Z,6.17
2019-06-01T04:04:15.044Z,6.75
2019-06-01T04:05:20.019Z,6.25
2019-06-01T04:06:25.843Z,7.42
2019-06-01T04:07:31.390Z,6.87
2019-06-01T04:08:36.981Z,6.72
2019-06-01T04:09:41.741Z,6.97
2019-06-01T04:10:47.486Z,7.20
2019-06-01T04:11:52.486Z,7.05
2019-06-01T04:12:58.361Z,7.40
2019-06-01T04:14:03.605Z,7.78
2019-06-01T04:15:13.104Z,7.25
2019-06-01T04:16:15.760Z,7.15
2019-06-01T04:17:21.035Z,6.50
2019-06-01T04:18:25.511Z,7.45
2019-06-01T04:19:31.001Z,6.20
2019-06-01T04:20:36.098Z,7.05
2019-06-01T04:21:41.451Z,7.08
2019-06-01T04:22:46.182Z,7.58
2019-06-01T04:23:51.575Z,7.55
2019-06-01T04:24:57.189Z,8.05
2019-06-01T04:26:04.149Z,6.80
2019-06-01T04:27:10.244Z,8.00
2019-06-01T04:28:16.363Z,7.60
2019-06-01T04:29:21.329Z,8.03
2019-06-01T04:30:28.974Z,7.30
2019-06-01T04:31:33.678Z,8.08
2019-06-01T04:32:49.350Z,8.05
2019-06-01T04:33:46.204Z,8.18
2019-06-01T04:34:51.771Z,7.85
2019-06-01T04:35:56.294Z,7.40
2019-06-01T04:37:03.496Z,8.05
2019-06-01T04:38:09.237Z,7.58
2019-06-01T04:39:15.482Z,7.75
2019-06-01T04:40:20.146Z,7.65
2019-06-01T04:41:25.987Z,8.10
2019-06-01T04:42:30.979Z,8.90
2019-06-01T04:43:36.794Z,7.28
2019-06-01T04:44:41.855Z,8.38
2019-06-01T04:45:47.497Z,7.78
2019-06-01T04:46:52.188Z,8.48
2019-06-01T04:47:57.524Z,8.58
2019-06-01T04:49:02.761Z,8.18
2019-06-01T04:50:08.724Z,7.80
2019-06-01T04:51:14.969Z,7.80
2019-06-01T04:52:20.967Z,8.03
2019-06-01T04:53:26.075Z,7.85
2019-06-01T04:54:31.523Z,8.60
2019-06-01T04:55:36.794Z,7.70
2019-06-01T04:56:42.358Z,7.83
2019-06-01T04:57:47.036Z,8.58
2019-06-01T04:58:52.964Z,8.33
2019-06-01T04:59:57.716Z,7.80
2019-06-01T05:01:03.295Z,8.00
2019-06-01T05:02:09.305Z,8.13
2019-06-01T05:03:15.504Z,8.63
2019-06-01T05:04:20.419Z,8.90
2019-06-01T05:05:26.257Z,8.15
2019-06-01T05:06:31.063Z,7.83
2019-06-01T05:07:37.184Z,8.53
2019-06-01T05:08:42.478Z,7.97
2019-06-01T05:09:48.412Z,8.55
2019-06-01T05:10:53.436Z,8.33
2019-06-01T05:11:59.304Z,7.70
2019-06-01T05:13:03.774Z,8.90
2019-06-01T05:14:09.724Z,7.78
2019-06-01T05:15:16.209Z,7.60
2019-06-01T05:16:22.338Z,8.10
2019-06-01T05:17:27.433Z,8.03
2019-06-01T05:18:32.959Z,8.70
2019-06-01T05:19:38.351Z,8.33
2019-06-01T05:20:44.778Z,8.08
2019-06-01T05:21:49.724Z,8.55
2019-06-01T05:22:55.313Z,7.70
2019-06-01T05:24:00.457Z,8.90
2019-06-01T05:25:06.870Z,9.20
2019-06-01T05:26:12.853Z,9.00
2019-06-01T05:27:18.492Z,7.67
2019-06-01T05:28:23.750Z,8.85
2019-06-01T05:29:29.283Z,8.15
2019-06-01T05:30:34.617Z,8.88
2019-06-01T05:31:40.799Z,8.48
2019-06-01T05:32:46.101Z,8.70
2019-06-01T05:33:51.985Z,8.65
2019-06-01T05:34:56.755Z,8.90
2019-06-01T05:36:02.601Z,8.60
2019-06-01T05:37:08.509Z,9.65
2019-06-01T05:38:14.327Z,9.05
2019-06-01T05:39:19.604Z,8.93
2019-06-01T05:40:25.489Z,8.68
2019-06-01T05:41:30.461Z,8.63
2019-06-01T05:42:36.307Z,8.70
2019-06-01T05:43:41.973Z,8.63
2019-06-01T05:44:47.542Z,8.75
2019-06-01T05:45:52.810Z,8.38
2019-06-01T05:46:58.382Z,8.90
2019-06-01T05:48:03.629Z,8.65
2019-06-01T05:49:11.988Z,8.83
2019-06-01T05:50:16.442Z,8.88
2019-06-01T05:51:23.054Z,9.53
2019-06-01T05:52:27.798Z,8.33
2019-06-01T05:53:33.694Z,9.13
2019-06-01T05:54:38.743Z,8.40
2019-06-01T05:55:44.310Z,8.80
2019-06-01T05:56:49.874Z,8.50
2019-06-01T05:57:55.158Z,8.70
2019-06-01T05:59:00.138Z,8.73
2019-06-01T06:00:06.198Z,8.78
2019-06-01T06:01:12.348Z,7.78
2019-06-01T06:02:19.486Z,8.00
2019-06-01T06:03:39.528Z,8.53
2019-06-01T06:04:32.477Z,8.23
2019-06-01T06:05:37.518Z,8.65
2019-06-01T06:06:44.320Z,8.33
2019-06-01T06:07:49.271Z,7.83
2019-06-01T06:08:55.185Z,8.53
2019-06-01T06:10:00.148Z,8.60
2019-06-01T06:11:06.320Z,8.33
2019-06-01T06:12:11.334Z,8.50
2019-06-01T06:13:17.459Z,8.38
2019-06-01T06:14:22.820Z,8.60
2019-06-01T06:15:28.088Z,8.65
2019-06-01T06:16:33.351Z,9.00
2019-06-01T06:17:38.929Z,8.18
2019-06-01T06:18:43.380Z,8.15
2019-06-01T06:19:49.315Z,8.23
2019-06-01T06:20:54.274Z,8.18
2019-06-01T06:21:59.822Z,8.10
2019-06-01T06:23:04.534Z,8.38
2019-06-01T06:24:09.836Z,8.23
2019-06-01T06:25:14.823Z,7.72
2019-06-01T06:26:20.902Z,8.48
2019-06-01T06:27:27.207Z,8.38
2019-06-01T06:28:32.574Z,8.33
2019-06-01T06:29:37.831Z,8.35
2019-06-01T06:30:43.396Z,8.08
2019-06-01T06:31:48.463Z,7.45
2019-06-01T06:32:54.272Z,7.33
2019-06-01T06:33:58.911Z,8.05
2019-06-01T06:35:03.933Z,7.97
2019-06-01T06:36:08.904Z,7.83
2019-06-01T06:37:15.551Z,7.25
2019-06-01T06:38:21.931Z,7.60
2019-06-01T06:39:27.776Z,6.53
2019-06-01T06:40:33.829Z,6.67
2019-06-01T06:41:39.377Z,6.53
2019-06-01T06:42:44.621Z,6.78
2019-06-01T06:43:50.522Z,6.05
2019-06-01T06:44:55.761Z,6.83
2019-06-01T06:46:01.339Z,7.10
2019-06-01T06:47:06.278Z,7.08
2019-06-01T06:48:11.848Z,6.87
2019-06-01T06:49:17.130Z,6.08
2019-06-01T06:50:23.566Z,6.60
2019-06-01T06:51:28.647Z,6.45
2019-06-01T06:52:34.264Z,6.55
2019-06-01T06:53:38.937Z,6.65
2019-06-01T06:54:44.276Z,6.40
2019-06-01T06:55:49.248Z,6.70
2019-06-01T06:56:54.506Z,6.40
2019-06-01T06:57:59.214Z,6.55
2019-06-01T06:59:04.290Z,6.20
2019-06-01T07:00:09.346Z,6.97
2019-06-01T07:01:14.607Z,5.85
2019-06-01T07:02:19.482Z,6.95
2019-06-01T07:03:25.241Z,6.92
2019-06-01T07:04:30.494Z,6.90
2019-06-01T07:05:36.080Z,6.47
2019-06-01T07:06:40.762Z,6.95
2019-06-01T07:07:46.021Z,6.65
2019-06-01T07:08:50.964Z,6.67
2019-06-01T07:09:56.136Z,7.20
2019-06-01T07:11:00.845Z,6.65
2019-06-01T07:12:06.385Z,6.58
2019-06-01T07:13:11.656Z,6.40
2019-06-01T07:14:17.730Z,6.97
2019-06-01T07:15:23.491Z,6.70
2019-06-01T07:16:28.588Z,7.15
2019-06-01T07:17:33.261Z,7.15
2019-06-01T07:18:39.100Z,6.78
2019-06-01T07:19:44.673Z,6.85
2019-06-01T07:20:50.241Z,7.05
2019-06-01T07:21:55.190Z,6.85
2019-06-01T07:23:01.024Z,7.00
2019-06-01T07:24:05.746Z,6.40
2019-06-01T07:25:11.551Z,7.17
2019-06-01T07:26:17.095Z,6.28
2019-06-01T07:27:22.631Z,6.70
2019-06-01T07:28:28.267Z,6.20
2019-06-01T07:29:33.942Z,5.95
2019-06-01T07:30:49.701Z,5.92
2019-06-01T07:31:46.720Z,6.70
2019-06-01T07:32:52.034Z,6.80
2019-06-01T07:33:58.108Z,6.12
2019-06-01T07:35:03.093Z,6.62
2019-06-01T07:36:08.380Z,6.40
2019-06-01T07:37:12.881Z,6.80
2019-06-01T07:38:18.492Z,5.53
2019-06-01T07:39:24.868Z,6.60
2019-06-01T07:40:30.604Z,6.20
2019-06-01T07:41:35.558Z,6.80
2019-06-01T07:42:41.116Z,5.97
2019-06-01T07:43:46.130Z,5.70
2019-06-01T07:44:51.438Z,5.62
2019-06-01T07:45:56.411Z,5.58
2019-06-01T07:47:02.048Z,5.47
2019-06-01T07:48:07.265Z,5.22
2019-06-01T07:49:13.127Z,5.80
2019-06-01T07:50:17.806Z,5.47
2019-06-01T07:51:23.653Z,5.45
2019-06-01T07:52:28.631Z,5.10
2019-06-01T07:53:33.896Z,4.92
2019-06-01T07:54:38.867Z,5.40
2019-06-01T07:55:44.385Z,5.05
2019-06-01T07:56:49.091Z,5.60
2019-06-01T07:57:54.703Z,5.70
2019-06-01T07:58:59.467Z,5.35
2019-06-01T08:00:04.661Z,5.83
2019-06-01T08:01:09.097Z,5.60
2019-06-01T08:02:14.669Z,5.47
2019-06-01T08:03:19.924Z,4.80
2019-06-01T08:04:28.121Z,5.50
2019-06-01T08:05:33.222Z,4.83
2019-06-01T08:06:45.132Z,4.85
2019-06-01T08:07:45.746Z,5.12
2019-06-01T08:08:50.857Z,4.72
2019-06-01T08:09:56.121Z,4.70
2019-06-01T08:11:02.271Z,4.47
2019-06-01T08:12:07.222Z,4.37
2019-06-01T08:13:13.077Z,4.33
2019-06-01T08:14:18.051Z,3.80
2019-06-01T08:15:23.567Z,3.42
2019-06-01T08:16:28.276Z,3.75
2019-06-01T08:17:34.154Z,4.17
2019-06-01T08:18:39.406Z,3.80
2019-06-01T08:19:44.992Z,3.42
2019-06-01T08:20:50.221Z,3.55
2019-06-01T08:21:55.794Z,3.02
2019-06-01T08:23:01.246Z,3.90
2019-06-01T08:24:07.076Z,3.25
2019-06-01T08:25:12.299Z,3.60
2019-06-01T08:26:20.019Z,3.20
2019-06-01T08:27:24.947Z,3.47
2019-06-01T08:28:30.882Z,2.95
2019-06-01T08:29:35.876Z,3.00
2019-06-01T08:30:41.139Z,3.22
2019-06-01T08:31:46.106Z,3.33
2019-06-01T08:32:51.654Z,3.72
2019-06-01T08:33:56.086Z,3.08
2019-06-01T08:35:08.559Z,3.47
2019-06-01T08:36:08.072Z,3.60
2019-06-01T08:37:13.903Z,3.47
2019-06-01T08:38:18.886Z,3.25
2019-06-01T08:39:25.199Z,3.67
2019-06-01T08:40:31.429Z,3.22
2019-06-01T08:41:36.749Z,3.50
2019-06-01T08:42:41.733Z,3.15
2019-06-01T08:43:47.299Z,3.30
2019-06-01T08:44:52.248Z,3.30
2019-06-01T08:45:57.541Z,3.70
2019-06-01T08:47:02.348Z,3.72
2019-06-01T08:48:07.921Z,3.45
2019-06-01T08:49:12.627Z,3.62
2019-06-01T08:50:18.807Z,4.03
2019-06-01T08:51:23.989Z,4.00
2019-06-01T08:52:30.393Z,4.00
2019-06-01T08:53:35.164Z,3.58
2019-06-01T08:54:40.508Z,3.30
2019-06-01T08:55:45.737Z,2.83
2019-06-01T08:56:51.341Z,3.30
2019-06-01T08:57:56.044Z,3.65
2019-06-01T08:59:01.933Z,2.92
2019-06-01T09:00:07.968Z,2.37
2019-06-01T09:01:13.315Z,3.05
2019-06-01T09:02:18.670Z,2.72
2019-06-01T09:03:25.736Z,2.80
2019-06-01T09:04:32.732Z,3.25
2019-06-01T09:05:37.931Z,3.10
2019-06-01T09:06:42.922Z,3.50
2019-06-01T09:07:47.992Z,3.10
2019-06-01T09:08:52.957Z,2.98
2019-06-01T09:09:58.036Z,3.10
2019-06-01T09:11:03.273Z,3.12
2019-06-01T09:12:08.582Z,2.95
2019-06-01T09:13:13.539Z,2.70
2019-06-01T09:14:18.563Z,3.30
2019-06-01T09:15:23.592Z,3.00
2019-06-01T09:16:29.694Z,2.60
2019-06-01T09:17:35.526Z,2.47
2019-06-01T09:18:40.941Z,2.22
2019-06-01T09:19:45.925Z,2.27
2019-06-01T09:20:50.962Z,2.00
2019-06-01T09:21:55.954Z,1.75
2019-06-01T09:23:02.153Z,1.90
2019-06-01T09:24:06.833Z,1.80
2019-06-01T09:25:12.115Z,2.10
2019-06-01T09:26:17.398Z,2.20
2019-06-01T09:27:22.974Z,2.10
2019-06-01T09:28:27.934Z,2.40
2019-06-01T09:29:34.079Z,2.20
2019-06-01T09:30:39.415Z,2.10
2019-06-01T09:31:45.242Z,2.55
2019-06-01T09:32:50.216Z,2.40
2019-06-01T09:33:55.597Z,2.70
2019-06-01T09:35:00.276Z,2.40
2019-06-01T09:36:05.538Z,2.37
2019-06-01T09:37:10.500Z,2.05
2019-06-01T09:38:16.091Z,2.20
2019-06-01T09:39:20.770Z,2.20
2019-06-01T09:40:28.253Z,2.08
2019-06-01T09:41:33.133Z,2.30
2019-06-01T09:42:38.186Z,2.02
2019-06-01T09:43:42.622Z,2.00
2019-06-01T09:44:48.348Z,1.82
2019-06-01T09:45:53.753Z,2.12
2019-06-01T09:46:59.241Z,1.70
2019-06-01T09:48:03.945Z,2.10
2019-06-01T09:49:09.538Z,2.47
2019-06-01T09:50:14.724Z,2.33
2019-06-01T09:51:20.301Z,2.20
2019-06-01T09:52:25.577Z,2.12
2019-06-01T09:53:32.426Z,2.50
2019-06-01T09:54:38.138Z,2.52
2019-06-01T09:55:43.636Z,2.33
2019-06-01T09:56:48.949Z,2.05
2019-06-01T09:57:54.234Z,2.33
2019-06-01T09:58:59.482Z,2.00
2019-06-01T10:00:05.200Z,2.40
2019-06-01T10:01:09.913Z,2.25
2019-06-01T10:02:15.156Z,2.15
2019-06-01T10:03:20.095Z,2.20
2019-06-01T10:04:25.365Z,2.17
2019-06-01T10:05:30.280Z,2.08
2019-06-01T10:06:36.617Z,2.40
2019-06-01T10:07:41.641Z,2.00
2019-06-01T10:08:47.252Z,2.02
2019-06-01T10:09:52.542Z,2.40
2019-06-01T10:10:58.089Z,2.10
2019-06-01T10:12:03.096Z,2.40
2019-06-01T10:13:08.650Z,2.20
2019-06-01T10:14:13.336Z,2.45
2019-06-01T10:15:18.601Z,2.40
2019-06-01T10:16:23.833Z,2.12
2019-06-01T10:17:30.449Z,2.12
2019-06-01T10:18:36.935Z,2.12
2019-06-01T10:19:43.133Z,2.08
2019-06-01T10:20:48.357Z,2.22
2019-06-01T10:21:54.473Z,1.98
2019-06-01T10:22:59.157Z,2.10
2019-06-01T10:24:04.479Z,2.05
2019-06-01T10:25:09.968Z,2.10
2019-06-01T10:26:15.234Z,2.17
2019-06-01T10:27:20.205Z,2.08
2019-06-01T10:28:25.883Z,2.47
2019-06-01T10:29:30.748Z,2.12
2019-06-01T10:30:37.830Z,2.25
2019-06-01T10:31:43.256Z,2.22
2019-06-01T10:32:49.066Z,2.27
2019-06-01T10:33:54.107Z,2.17
2019-06-01T10:34:59.396Z,2.30
2019-06-01T10:36:19.044Z,1.92
2019-06-01T10:37:11.648Z,2.15
2019-06-01T10:38:16.935Z,2.15
2019-06-01T10:39:22.273Z,2.08
2019-06-01T10:40:27.302Z,2.50
2019-06-01T10:41:33.288Z,2.40
2019-06-01T10:42:39.728Z,2.50
2019-06-01T10:43:45.462Z,2.12
2019-06-01T10:44:50.423Z,2.00
2019-06-01T10:45:55.703Z,2.30
2019-06-01T10:47:00.417Z,2.20
2019-06-01T10:48:05.694Z,2.35
2019-06-01T10:49:10.681Z,2.42
2019-06-01T10:50:17.613Z,1.98
2019-06-01T10:51:22.497Z,2.45
2019-06-01T10:52:28.359Z,2.27
2019-06-01T10:53:34.851Z,2.30
2019-06-01T10:54:42.463Z,2.37
2019-06-01T10:55:47.447Z,2.50
2019-06-01T10:56:53.191Z,2.20
2019-06-01T10:57:58.666Z,2.62
2019-06-01T10:59:03.709Z,2.17
2019-06-01T11:00:08.795Z,2.20
2019-06-01T11:01:14.390Z,1.90
2019-06-01T11:02:18.824Z,2.08
2019-06-01T11:03:24.106Z,2.10
2019-06-01T11:04:28.850Z,1.90
2019-06-01T11:05:34.978Z,2.05
2019-06-01T11:06:44.912Z,2.20
2019-06-01T11:07:46.580Z,1.90
2019-06-01T11:08:51.903Z,2.47
2019-06-01T11:09:57.781Z,2.05
2019-06-01T11:11:02.509Z,2.27
2019-06-01T11:12:07.766Z,2.10
2019-06-01T11:13:13.330Z,2.58
2019-06-01T11:14:18.602Z,2.20
2019-06-01T11:15:24.165Z,2.50
2019-06-01T11:16:29.785Z,1.82
2019-06-01T11:17:34.935Z,1.80
2019-06-01T11:18:41.760Z,2.00
2019-06-01T11:19:46.638Z,1.98
2019-06-01T11:20:52.432Z,1.70
2019-06-01T11:21:58.005Z,1.92
2019-06-01T11:23:03.701Z,1.92
2019-06-01T11:24:08.337Z,1.80
2019-06-01T11:25:14.117Z,2.40
2019-06-01T11:26:19.355Z,2.02
2019-06-01T11:27:24.933Z,1.82
2019-06-01T11:28:29.911Z,1.80
2019-06-01T11:29:41.192Z,1.77
2019-06-01T11:30:42.141Z,1.90
2019-06-01T11:31:47.708Z,1.87
2019-06-01T11:32:52.877Z,1.80
2019-06-01T11:33:57.914Z,2.00
2019-06-01T11:35:02.642Z,1.87
2019-06-01T11:36:08.196Z,1.98
2019-06-01T11:37:15.439Z,1.90
2019-06-01T11:38:20.167Z,2.25
2019-06-01T11:39:25.171Z,1.57
2019-06-01T11:40:31.118Z,1.67
2019-06-01T11:41:36.391Z,1.77
2019-06-01T11:42:42.803Z,1.77
2019-06-01T11:43:48.275Z,1.70
2019-06-01T11:44:53.896Z,1.80
2019-06-01T11:45:58.890Z,1.90
2019-06-01T11:47:04.418Z,1.98
2019-06-01T11:48:09.392Z,1.95
2019-06-01T11:49:14.991Z,1.85
2019-06-01T11:50:19.693Z,2.10
2019-06-01T11:51:25.374Z,2.10
2019-06-01T11:52:29.802Z,2.50
2019-06-01T11:53:35.372Z,3.12
2019-06-01T11:54:41.193Z,1.98
2019-06-01T11:55:46.606Z,1.90
2019-06-01T11:56:51.920Z,1.87
2019-06-01T11:57:57.443Z,2.00
2019-06-01T11:59:02.725Z,1.90
2019-06-01T12:00:10.066Z,2.12
2019-06-01T12:01:15.095Z,2.00
2019-06-01T12:02:20.673Z,1.95
2019-06-01T12:03:26.253Z,2.55
2019-06-01T12:04:31.299Z,2.67
2019-06-01T12:05:36.298Z,1.90
2019-06-01T12:06:42.095Z,1.82
2019-06-01T12:07:47.351Z,2.20
2019-06-01T12:08:53.461Z,2.27
2019-06-01T12:09:58.540Z,2.35
2019-06-01T12:11:03.872Z,2.02
2019-06-01T12:12:08.854Z,2.35
2019-06-01T12:13:14.668Z,1.70
2019-06-01T12:14:19.645Z,1.80
2019-06-01T12:15:26.882Z,2.20
2019-06-01T12:16:32.224Z,1.90
2019-06-01T12:17:38.597Z,1.90
2019-06-01T12:18:44.725Z,1.90
2019-06-01T12:19:50.385Z,2.12
2019-06-01T12:20:55.067Z,1.60
2019-06-01T12:22:00.954Z,1.77
2019-06-01T12:23:05.876Z,1.85
2019-06-01T12:24:11.707Z,1.60
2019-06-01T12:25:16.856Z,1.70
2019-06-01T12:26:22.131Z,1.72
2019-06-01T12:27:26.805Z,1.95
2019-06-01T12:28:32.358Z,2.17
2019-06-01T12:29:37.741Z,1.85
2019-06-01T12:30:43.824Z,1.85
2019-06-01T12:31:49.333Z,1.77
2019-06-01T12:32:55.000Z,1.90
2019-06-01T12:34:00.260Z,2.05
2019-06-01T12:35:06.289Z,2.37
2019-06-01T12:36:11.005Z,2.10
2019-06-01T12:37:34.151Z,2.10
2019-06-01T12:38:23.356Z,2.00
2019-06-01T12:39:28.955Z,1.98
2019-06-01T12:40:33.641Z,2.20
2019-06-01T12:41:39.754Z,2.05
2019-06-01T12:42:45.918Z,2.17
2019-06-01T12:44:08.677Z,2.20
2019-06-01T12:45:22.432Z,2.05
2019-06-01T12:46:26.332Z,1.90
2019-06-01T12:47:31.744Z,1.85
2019-06-01T12:48:37.002Z,2.33
2019-06-01T12:49:42.382Z,2.30
2019-06-01T12:50:50.788Z,2.17
2019-06-01T12:51:54.252Z,2.00
2019-06-01T12:52:59.818Z,1.98
2019-06-01T12:54:04.812Z,2.15
2019-06-01T12:55:10.275Z,1.90
2019-06-01T12:56:15.539Z,2.08
2019-06-01T12:57:21.199Z,2.10
2019-06-01T12:58:26.256Z,2.15
2019-06-01T12:59:32.070Z,2.37
2019-06-01T13:00:37.019Z,2.52
2019-06-01T13:01:43.104Z,2.17
2019-06-01T13:02:59.241Z,2.27
2019-06-01T13:03:55.249Z,2.10
2019-06-01T13:05:00.788Z,1.98
2019-06-01T13:06:06.329Z,2.10
2019-06-01T13:07:11.572Z,2.10
2019-06-01T13:08:17.416Z,2.35
2019-06-01T13:09:22.139Z,2.45
2019-06-01T13:10:27.700Z,1.92
2019-06-01T13:11:32.377Z,2.40
2019-06-01T13:12:37.932Z,2.15
2019-06-01T13:13:43.201Z,2.00
2019-06-01T13:14:49.356Z,1.90
2019-06-01T13:15:54.128Z,1.90
2019-06-01T13:17:07.312Z,2.17
2019-06-01T13:18:06.473Z,1.87
2019-06-01T13:19:11.780Z,1.90
2019-06-01T13:20:16.495Z,2.12
2019-06-01T13:21:22.298Z,1.75
2019-06-01T13:22:27.051Z,2.30
2019-06-01T13:23:32.591Z,2.12
2019-06-01T13:24:37.526Z,2.05
2019-06-01T13:25:43.582Z,2.10
2019-06-01T13:26:50.037Z,2.45
2019-06-01T13:27:56.155Z,2.17
2019-06-01T13:29:01.105Z,2.33
2019-06-01T13:30:07.254Z,1.98
2019-06-01T13:31:12.476Z,1.92
2019-06-01T13:32:18.149Z,2.22
2019-06-01T13:33:22.625Z,2.10
2019-06-01T13:34:28.454Z,2.08
2019-06-01T13:35:35.362Z,2.22
2019-06-01T13:36:40.644Z,2.20
2019-06-01T13:37:46.615Z,2.00
2019-06-01T13:38:52.944Z,2.35
2019-06-01T13:39:58.499Z,1.98
2019-06-01T13:41:03.880Z,2.12
2019-06-01T13:42:08.858Z,2.12
2019-06-01T13:43:14.432Z,2.10
2019-06-01T13:44:19.986Z,2.10
2019-06-01T13:45:25.234Z,2.37
2019-06-01T13:46:29.924Z,2.02
2019-06-01T13:47:35.492Z,2.00
2019-06-01T13:48:40.437Z,1.90
2019-06-01T13:49:46.850Z,2.02
2019-06-01T13:50:52.230Z,2.27
2019-06-01T13:51:57.760Z,1.80
2019-06-01T13:53:03.545Z,1.77
2019-06-01T13:54:09.092Z,2.10
2019-06-01T13:55:14.511Z,1.80
2019-06-01T13:56:20.080Z,1.98
2019-06-01T13:57:25.349Z,1.90
2019-06-01T13:58:30.884Z,2.25
2019-06-01T13:59:35.585Z,2.20
2019-06-01T14:00:41.120Z,2.17
2019-06-01T14:01:46.952Z,2.00
2019-06-01T14:02:55.517Z,2.22
2019-06-01T14:03:59.504Z,2.12
2019-06-01T14:05:04.761Z,2.33
2019-06-01T14:06:09.772Z,2.30
2019-06-01T14:07:15.385Z,2.15
2019-06-01T14:08:29.136Z,1.85
2019-06-01T14:09:27.146Z,2.55
2019-06-01T14:10:32.090Z,1.85
2019-06-01T14:11:37.350Z,2.30
2019-06-01T14:12:42.624Z,2.20
2019-06-01T14:13:48.190Z,2.17
2019-06-01T14:14:53.535Z,2.35
2019-06-01T14:15:59.785Z,2.47
2019-06-01T14:17:04.474Z,2.50
2019-06-01T14:18:09.774Z,1.95
2019-06-01T14:19:15.314Z,2.08
2019-06-01T14:20:20.756Z,2.10
2019-06-01T14:21:25.721Z,2.00
2019-06-01T14:22:31.294Z,2.10
2019-06-01T14:23:36.653Z,2.10
2019-06-01T14:24:44.129Z,2.08
2019-06-01T14:25:50.182Z,2.00
2019-06-01T14:26:56.330Z,2.40
2019-06-01T14:28:01.337Z,2.27
2019-06-01T14:29:06.727Z,2.20
2019-06-01T14:30:11.542Z,2.12
2019-06-01T14:31:17.735Z,2.20
2019-06-01T14:32:22.457Z,2.10
2019-06-01T14:33:27.842Z,1.90